sensor_id;sensor_type;location;lat;lon;timestamp;P1;durP1;ratioP1;P2;durP2;ratioP2
46036;SDS011;31769;49.304;8.428;2022-07-10T02:04:13;5.15;;;2.15;;
46036;SDS011;31769;49.304;8.428;2022-07-10T02:07:32;8.85;;;2.50;;
46036;SDS011;31769;49.304;8.428;2022-07-10T02:10:33;6.65;;;2.00;;
46036;SDS011;31769;49.304;8.428;2022-07-10T02:13:34;3.53;;;2.03;;
46036;SDS011;31769;49.304;8.428;2022-07-10T02:16:35;6.50;;;2.00;;
46036;SDS011;31769;49.304;8.428;2022-07-10T02:19:36;6.40;;;2.03;;
46036;SDS011;31769;49.304;8.428;2022-07-10T02:22:36;5.78;;;2.10;;
46036;SDS011;31769;49.304;8.428;2022-07-10T02:25:37;4.35;;;1.92;;
46036;SDS011;31769;49.304;8.428;2022-07-10T02:28:38;3.45;;;1.58;;
46036;SDS011;31769;49.304;8.428;2022-07-10T02:31:38;9.68;;;2.22;;
46036;SDS011;31769;49.304;8.428;2022-07-10T02:34:42;4.40;;;2.03;;
46036;SDS011;31769;49.304;8.428;2022-07-10T02:37:43;7.28;;;2.30;;
46036;SDS011;31769;49.304;8.428;2022-07-10T02:40:44;4.80;;;2.10;;
46036;SDS011;31769;49.304;8.428;2022-07-10T02:43:44;2.92;;;1.98;;
46036;SDS011;31769;49.304;8.428;2022-07-10T02:46:45;5.28;;;1.83;;
46036;SDS011;31769;49.304;8.428;2022-07-10T02:49:46;4.20;;;1.90;;
46036;SDS011;31769;49.304;8.428;2022-07-10T02:52:46;4.05;;;1.77;;
46036;SDS011;31769;49.304;8.428;2022-07-10T02:55:47;9.50;;;2.10;;
46036;SDS011;31769;49.304;8.428;2022-07-10T02:58:48;3.50;;;2.00;;
46036;SDS011;31769;49.304;8.428;2022-07-10T03:01:49;3.88;;;1.77;;
46036;SDS011;31769;49.304;8.428;2022-07-10T03:04:49;3.05;;;1.65;;
46036;SDS011;31769;49.304;8.428;2022-07-10T03:07:50;4.03;;;1.45;;
46036;SDS011;31769;49.304;8.428;2022-07-10T03:10:51;5.32;;;1.60;;
46036;SDS011;31769;49.304;8.428;2022-07-10T03:13:52;8.00;;;2.03;;
46036;SDS011;31769;49.304;8.428;2022-07-10T03:16:52;2.30;;;1.20;;
46036;SDS011;31769;49.304;8.428;2022-07-10T03:19:53;3.78;;;2.17;;
46036;SDS011;31769;49.304;8.428;2022-07-10T03:22:54;4.47;;;1.60;;
46036;SDS011;31769;49.304;8.428;2022-07-10T03:25:55;4.28;;;1.35;;
46036;SDS011;31769;49.304;8.428;2022-07-10T03:28:56;5.57;;;1.83;;
46036;SDS011;31769;49.304;8.428;2022-07-10T03:31:57;2.92;;;1.42;;
46036;SDS011;31769;49.304;8.428;2022-07-10T03:34:58;4.13;;;1.80;;
46036;SDS011;31769;49.304;8.428;2022-07-10T03:37:59;2.03;;;1.35;;
46036;SDS011;31769;49.304;8.428;2022-07-10T03:40:59;4.32;;;1.55;;
46036;SDS011;31769;49.304;8.428;2022-07-10T03:44:00;2.92;;;1.30;;
46036;SDS011;31769;49.304;8.428;2022-07-10T03:47:01;7.43;;;1.75;;
46036;SDS011;31769;49.304;8.428;2022-07-10T03:50:02;4.88;;;1.23;;
46036;SDS011;31769;49.304;8.428;2022-07-10T03:53:02;6.70;;;1.75;;
46036;SDS011;31769;49.304;8.428;2022-07-10T03:56:03;6.45;;;1.40;;
46036;SDS011;31769;49.304;8.428;2022-07-10T03:59:05;7.82;;;1.55;;
46036;SDS011;31769;49.304;8.428;2022-07-10T04:02:05;5.07;;;1.20;;
46036;SDS011;31769;49.304;8.428;2022-07-10T04:05:07;4.70;;;1.20;;
46036;SDS011;31769;49.304;8.428;2022-07-10T04:08:09;5.80;;;1.40;;
46036;SDS011;31769;49.304;8.428;2022-07-10T04:11:10;2.75;;;0.98;;
46036;SDS011;31769;49.304;8.428;2022-07-10T04:14:10;2.90;;;1.30;;
46036;SDS011;31769;49.304;8.428;2022-07-10T04:17:11;2.35;;;1.15;;
46036;SDS011;31769;49.304;8.428;2022-07-10T04:20:11;5.35;;;1.75;;
46036;SDS011;31769;49.304;8.428;2022-07-10T04:23:12;6.05;;;1.35;;
46036;SDS011;31769;49.304;8.428;2022-07-10T04:26:13;5.05;;;0.95;;
46036;SDS011;31769;49.304;8.428;2022-07-10T04:29:14;5.43;;;1.30;;
46036;SDS011;31769;49.304;8.428;2022-07-10T04:32:15;5.45;;;1.80;;
46036;SDS011;31769;49.304;8.428;2022-07-10T04:35:15;4.00;;;1.80;;
46036;SDS011;31769;49.304;8.428;2022-07-10T04:38:16;5.30;;;1.50;;
46036;SDS011;31769;49.304;8.428;2022-07-10T04:41:17;4.22;;;1.52;;
46036;SDS011;31769;49.304;8.428;2022-07-10T04:44:18;4.88;;;1.60;;
46036;SDS011;31769;49.304;8.428;2022-07-10T04:47:19;6.28;;;1.80;;
46036;SDS011;31769;49.304;8.428;2022-07-10T04:50:20;5.25;;;1.52;;
46036;SDS011;31769;49.304;8.428;2022-07-10T04:53:20;7.25;;;1.55;;
46036;SDS011;31769;49.304;8.428;2022-07-10T04:56:21;4.10;;;1.27;;
46036;SDS011;31769;49.304;8.428;2022-07-10T04:59:22;5.60;;;1.88;;
46036;SDS011;31769;49.304;8.428;2022-07-10T05:02:23;3.85;;;1.55;;
46036;SDS011;31769;49.304;8.428;2022-07-10T05:05:24;5.30;;;1.85;;
46036;SDS011;31769;49.304;8.428;2022-07-10T05:08:24;2.75;;;1.52;;
46036;SDS011;31769;49.304;8.428;2022-07-10T05:11:25;4.32;;;1.60;;
46036;SDS011;31769;49.304;8.428;2022-07-10T05:14:26;6.60;;;1.40;;
46036;SDS011;31769;49.304;8.428;2022-07-10T05:17:27;6.30;;;1.75;;
46036;SDS011;31769;49.304;8.428;2022-07-10T05:20:32;4.10;;;1.75;;
46036;SDS011;31769;49.304;8.428;2022-07-10T05:23:34;3.10;;;1.35;;
46036;SDS011;31769;49.304;8.428;2022-07-10T05:26:35;6.78;;;1.33;;
46036;SDS011;31769;49.304;8.428;2022-07-10T05:29:36;5.47;;;1.67;;
46036;SDS011;31769;49.304;8.428;2022-07-10T05:32:43;6.28;;;1.75;;
46036;SDS011;31769;49.304;8.428;2022-07-10T05:35:45;5.18;;;1.60;;
46036;SDS011;31769;49.304;8.428;2022-07-10T05:38:45;8.68;;;1.92;;
46036;SDS011;31769;49.304;8.428;2022-07-10T05:41:46;5.68;;;2.05;;
46036;SDS011;31769;49.304;8.428;2022-07-10T05:44:47;8.13;;;1.77;;
46036;SDS011;31769;49.304;8.428;2022-07-10T05:47:48;5.72;;;1.35;;
46036;SDS011;31769;49.304;8.428;2022-07-10T05:50:48;7.75;;;1.98;;
46036;SDS011;31769;49.304;8.428;2022-07-10T05:53:49;3.47;;;1.25;;
46036;SDS011;31769;49.304;8.428;2022-07-10T05:56:50;3.10;;;1.10;;
46036;SDS011;31769;49.304;8.428;2022-07-10T05:59:51;4.13;;;1.40;;
46036;SDS011;31769;49.304;8.428;2022-07-10T06:02:52;4.55;;;1.70;;
46036;SDS011;31769;49.304;8.428;2022-07-10T06:05:53;4.35;;;1.45;;
46036;SDS011;31769;49.304;8.428;2022-07-10T06:08:54;6.72;;;1.35;;
46036;SDS011;31769;49.304;8.428;2022-07-10T06:11:55;6.25;;;1.20;;
46036;SDS011;31769;49.304;8.428;2022-07-10T06:14:55;6.63;;;1.58;;
46036;SDS011;31769;49.304;8.428;2022-07-10T06:17:56;8.25;;;1.08;;
46036;SDS011;31769;49.304;8.428;2022-07-10T06:20:58;5.15;;;1.10;;
46036;SDS011;31769;49.304;8.428;2022-07-10T06:23:58;4.18;;;1.50;;
46036;SDS011;31769;49.304;8.428;2022-07-10T06:26:59;6.47;;;1.65;;
46036;SDS011;31769;49.304;8.428;2022-07-10T06:30:00;4.75;;;1.40;;
46036;SDS011;31769;49.304;8.428;2022-07-10T06:33:01;4.55;;;1.10;;
46036;SDS011;31769;49.304;8.428;2022-07-10T06:36:02;3.53;;;1.02;;
46036;SDS011;31769;49.304;8.428;2022-07-10T06:39:04;3.90;;;1.00;;
46036;SDS011;31769;49.304;8.428;2022-07-10T06:42:05;3.70;;;1.02;;
46036;SDS011;31769;49.304;8.428;2022-07-10T06:45:13;6.85;;;1.15;;
46036;SDS011;31769;49.304;8.428;2022-07-10T06:48:14;3.55;;;1.23;;
46036;SDS011;31769;49.304;8.428;2022-07-10T06:51:15;3.60;;;1.02;;
46036;SDS011;31769;49.304;8.428;2022-07-10T06:54:16;12.90;;;1.23;;
46036;SDS011;31769;49.304;8.428;2022-07-10T06:57:17;4.57;;;1.20;;
46036;SDS011;31769;49.304;8.428;2022-07-10T07:00:19;2.65;;;0.80;;
46036;SDS011;31769;49.304;8.428;2022-07-10T07:03:20;6.60;;;1.10;;
46036;SDS011;31769;49.304;8.428;2022-07-10T07:06:21;9.02;;;1.20;;
46036;SDS011;31769;49.304;8.428;2022-07-10T07:09:22;4.15;;;1.30;;
46036;SDS011;31769;49.304;8.428;2022-07-10T07:12:22;2.83;;;0.73;;
46036;SDS011;31769;49.304;8.428;2022-07-10T07:15:23;6.07;;;0.80;;
46036;SDS011;31769;49.304;8.428;2022-07-10T07:18:25;7.55;;;0.82;;
46036;SDS011;31769;49.304;8.428;2022-07-10T07:21:32;3.08;;;0.50;;
46036;SDS011;31769;49.304;8.428;2022-07-10T07:24:51;5.70;;;0.73;;
46036;SDS011;31769;49.304;8.428;2022-07-10T07:27:52;6.20;;;0.70;;
46036;SDS011;31769;49.304;8.428;2022-07-10T07:30:53;4.35;;;0.50;;
46036;SDS011;31769;49.304;8.428;2022-07-10T07:33:53;3.65;;;0.60;;
46036;SDS011;31769;49.304;8.428;2022-07-10T07:36:54;3.53;;;0.60;;
46036;SDS011;31769;49.304;8.428;2022-07-10T07:39:55;3.53;;;0.60;;
46036;SDS011;31769;49.304;8.428;2022-07-10T07:42:56;3.55;;;0.77;;
46036;SDS011;31769;49.304;8.428;2022-07-10T07:45:57;3.00;;;0.80;;
46036;SDS011;31769;49.304;8.428;2022-07-10T07:48:58;3.13;;;0.40;;
46036;SDS011;31769;49.304;8.428;2022-07-10T07:52:00;4.40;;;0.30;;
46036;SDS011;31769;49.304;8.428;2022-07-10T07:55:00;4.05;;;0.38;;
46036;SDS011;31769;49.304;8.428;2022-07-10T07:58:02;2.30;;;0.40;;
46036;SDS011;31769;49.304;8.428;2022-07-10T08:01:03;2.53;;;1.10;;
46036;SDS011;31769;49.304;8.428;2022-07-10T08:04:04;4.60;;;2.50;;
46036;SDS011;31769;49.304;8.428;2022-07-10T08:07:05;0.85;;;0.30;;
46036;SDS011;31769;49.304;8.428;2022-07-10T08:10:07;3.08;;;0.80;;
46036;SDS011;31769;49.304;8.428;2022-07-10T08:13:10;5.15;;;1.00;;
46036;SDS011;31769;49.304;8.428;2022-07-10T08:16:10;4.22;;;0.70;;
46036;SDS011;31769;49.304;8.428;2022-07-10T08:19:11;4.57;;;0.40;;
46036;SDS011;31769;49.304;8.428;2022-07-10T08:22:12;5.05;;;1.15;;
46036;SDS011;31769;49.304;8.428;2022-07-10T08:25:13;5.78;;;0.40;;
46036;SDS011;31769;49.304;8.428;2022-07-10T08:28:15;4.60;;;0.50;;
46036;SDS011;31769;49.304;8.428;2022-07-10T08:31:15;1.92;;;0.25;;
46036;SDS011;31769;49.304;8.428;2022-07-10T08:34:16;2.95;;;0.22;;
46036;SDS011;31769;49.304;8.428;2022-07-10T08:37:17;3.22;;;0.43;;
46036;SDS011;31769;49.304;8.428;2022-07-10T08:40:21;3.08;;;0.40;;
46036;SDS011;31769;49.304;8.428;2022-07-10T08:43:25;1.52;;;0.30;;
46036;SDS011;31769;49.304;8.428;2022-07-10T08:46:27;2.72;;;0.40;;
46036;SDS011;31769;49.304;8.428;2022-07-10T08:49:28;1.80;;;0.30;;
46036;SDS011;31769;49.304;8.428;2022-07-10T08:52:32;2.58;;;0.32;;
46036;SDS011;31769;49.304;8.428;2022-07-10T08:55:54;3.78;;;0.30;;
46036;SDS011;31769;49.304;8.428;2022-07-10T08:58:55;4.25;;;0.47;;
46036;SDS011;31769;49.304;8.428;2022-07-10T09:01:56;2.25;;;0.20;;
46036;SDS011;31769;49.304;8.428;2022-07-10T09:04:57;2.63;;;0.40;;
46036;SDS011;31769;49.304;8.428;2022-07-10T09:07:58;3.28;;;0.30;;
46036;SDS011;31769;49.304;8.428;2022-07-10T09:11:15;4.07;;;0.35;;
46036;SDS011;31769;49.304;8.428;2022-07-10T09:14:17;3.35;;;0.35;;
46036;SDS011;31769;49.304;8.428;2022-07-10T09:17:18;3.47;;;0.57;;
46036;SDS011;31769;49.304;8.428;2022-07-10T09:23:26;1.60;;;0.10;;
46036;SDS011;31769;49.304;8.428;2022-07-10T09:26:27;1.05;;;0.30;;
46036;SDS011;31769;49.304;8.428;2022-07-10T09:29:29;4.65;;;0.40;;
46036;SDS011;31769;49.304;8.428;2022-07-10T09:32:30;6.10;;;0.50;;
46036;SDS011;31769;49.304;8.428;2022-07-10T09:35:31;4.43;;;0.43;;
46036;SDS011;31769;49.304;8.428;2022-07-10T09:39:04;4.95;;;0.88;;
46036;SDS011;31769;49.304;8.428;2022-07-10T09:42:05;4.70;;;0.55;;
46036;SDS011;31769;49.304;8.428;2022-07-10T09:45:32;3.67;;;0.52;;
46036;SDS011;31769;49.304;8.428;2022-07-10T09:48:35;2.47;;;0.50;;
46036;SDS011;31769;49.304;8.428;2022-07-10T09:51:37;3.90;;;0.73;;
46036;SDS011;31769;49.304;8.428;2022-07-10T09:54:40;5.30;;;0.60;;
46036;SDS011;31769;49.304;8.428;2022-07-10T09:57:41;2.08;;;0.50;;
46036;SDS011;31769;49.304;8.428;2022-07-10T10:00:45;2.95;;;0.40;;
46036;SDS011;31769;49.304;8.428;2022-07-10T10:03:47;2.95;;;0.52;;
46036;SDS011;31769;49.304;8.428;2022-07-10T10:06:52;1.00;;;0.20;;
46036;SDS011;31769;49.304;8.428;2022-07-10T10:09:56;4.45;;;0.30;;
46036;SDS011;31769;49.304;8.428;2022-07-10T10:13:00;3.65;;;0.47;;
46036;SDS011;31769;49.304;8.428;2022-07-10T10:16:05;1.92;;;0.30;;
46036;SDS011;31769;49.304;8.428;2022-07-10T10:19:08;3.38;;;0.65;;
46036;SDS011;31769;49.304;8.428;2022-07-10T10:22:28;3.03;;;0.50;;
46036;SDS011;31769;49.304;8.428;2022-07-10T10:25:32;2.72;;;0.50;;
46036;SDS011;31769;49.304;8.428;2022-07-10T10:28:34;1.63;;;0.40;;
46036;SDS011;31769;49.304;8.428;2022-07-10T10:31:35;1.80;;;0.50;;
46036;SDS011;31769;49.304;8.428;2022-07-10T10:34:43;2.13;;;0.30;;
46036;SDS011;31769;49.304;8.428;2022-07-10T10:37:45;3.45;;;0.25;;
46036;SDS011;31769;49.304;8.428;2022-07-10T10:40:50;4.20;;;0.60;;
46036;SDS011;31769;49.304;8.428;2022-07-10T10:47:08;3.63;;;0.50;;
46036;SDS011;31769;49.304;8.428;2022-07-10T10:50:10;1.65;;;0.30;;
46036;SDS011;31769;49.304;8.428;2022-07-10T10:53:31;3.05;;;0.45;;
46036;SDS011;31769;49.304;8.428;2022-07-10T10:56:32;1.60;;;0.30;;
46036;SDS011;31769;49.304;8.428;2022-07-10T10:59:47;2.78;;;0.15;;
46036;SDS011;31769;49.304;8.428;2022-07-10T11:02:49;3.40;;;0.40;;
46036;SDS011;31769;49.304;8.428;2022-07-10T11:06:14;2.22;;;0.63;;
46036;SDS011;31769;49.304;8.428;2022-07-10T11:09:38;2.67;;;0.40;;
46036;SDS011;31769;49.304;8.428;2022-07-10T11:15:58;1.58;;;0.30;;
46036;SDS011;31769;49.304;8.428;2022-07-10T11:19:00;2.60;;;0.40;;
46036;SDS011;31769;49.304;8.428;2022-07-10T11:25:36;2.25;;;0.38;;
46036;SDS011;31769;49.304;8.428;2022-07-10T11:31:54;2.55;;;0.40;;
46036;SDS011;31769;49.304;8.428;2022-07-10T11:34:55;5.63;;;1.40;;
46036;SDS011;31769;49.304;8.428;2022-07-10T11:37:56;2.72;;;0.20;;
46036;SDS011;31769;49.304;8.428;2022-07-10T11:40:56;1.75;;;0.30;;
46036;SDS011;31769;49.304;8.428;2022-07-10T11:44:03;2.05;;;0.50;;
46036;SDS011;31769;49.304;8.428;2022-07-10T11:47:04;2.08;;;0.43;;
46036;SDS011;31769;49.304;8.428;2022-07-10T11:50:06;2.63;;;0.30;;
46036;SDS011;31769;49.304;8.428;2022-07-10T11:53:07;2.40;;;0.40;;
46036;SDS011;31769;49.304;8.428;2022-07-10T11:56:08;2.60;;;0.52;;
46036;SDS011;31769;49.304;8.428;2022-07-10T11:59:11;5.85;;;0.60;;
46036;SDS011;31769;49.304;8.428;2022-07-10T12:02:21;3.78;;;0.50;;
46036;SDS011;31769;49.304;8.428;2022-07-10T12:05:35;2.42;;;0.38;;
46036;SDS011;31769;49.304;8.428;2022-07-10T12:08:44;2.77;;;0.47;;
46036;SDS011;31769;49.304;8.428;2022-07-10T12:15:00;2.17;;;0.30;;
46036;SDS011;31769;49.304;8.428;2022-07-10T12:18:01;1.67;;;0.30;;
46036;SDS011;31769;49.304;8.428;2022-07-10T12:21:02;3.03;;;0.63;;
46036;SDS011;31769;49.304;8.428;2022-07-10T12:24:04;4.28;;;0.30;;
46036;SDS011;31769;49.304;8.428;2022-07-10T12:27:05;1.15;;;0.20;;
46036;SDS011;31769;49.304;8.428;2022-07-10T12:30:07;2.60;;;0.50;;
46036;SDS011;31769;49.304;8.428;2022-07-10T12:33:09;2.25;;;0.32;;
46036;SDS011;31769;49.304;8.428;2022-07-10T12:36:19;3.70;;;0.50;;
46036;SDS011;31769;49.304;8.428;2022-07-10T12:39:21;2.95;;;0.20;;
46036;SDS011;31769;49.304;8.428;2022-07-10T12:42:29;1.92;;;0.40;;
46036;SDS011;31769;49.304;8.428;2022-07-10T12:45:30;2.80;;;0.50;;
46036;SDS011;31769;49.304;8.428;2022-07-10T12:48:31;4.20;;;0.43;;
46036;SDS011;31769;49.304;8.428;2022-07-10T12:51:53;3.58;;;0.30;;
46036;SDS011;31769;49.304;8.428;2022-07-10T12:55:09;2.15;;;0.38;;
46036;SDS011;31769;49.304;8.428;2022-07-10T12:58:22;1.83;;;0.38;;
46036;SDS011;31769;49.304;8.428;2022-07-10T13:01:22;3.15;;;0.30;;
46036;SDS011;31769;49.304;8.428;2022-07-10T13:04:24;4.13;;;0.40;;
46036;SDS011;31769;49.304;8.428;2022-07-10T13:07:30;3.00;;;0.35;;
46036;SDS011;31769;49.304;8.428;2022-07-10T13:10:33;3.30;;;0.40;;
46036;SDS011;31769;49.304;8.428;2022-07-10T13:13:42;5.00;;;0.50;;
46036;SDS011;31769;49.304;8.428;2022-07-10T13:16:43;3.88;;;0.47;;
46036;SDS011;31769;49.304;8.428;2022-07-10T13:19:44;3.20;;;0.45;;
46036;SDS011;31769;49.304;8.428;2022-07-10T13:22:44;1.45;;;0.32;;
46036;SDS011;31769;49.304;8.428;2022-07-10T13:25:45;2.88;;;0.43;;
46036;SDS011;31769;49.304;8.428;2022-07-10T13:28:46;3.92;;;0.45;;
46036;SDS011;31769;49.304;8.428;2022-07-10T13:31:46;4.47;;;0.32;;
46036;SDS011;31769;49.304;8.428;2022-07-10T13:34:47;2.47;;;0.30;;
46036;SDS011;31769;49.304;8.428;2022-07-10T13:37:48;2.30;;;0.30;;
46036;SDS011;31769;49.304;8.428;2022-07-10T13:40:49;2.85;;;0.57;;
46036;SDS011;31769;49.304;8.428;2022-07-10T13:43:50;4.05;;;0.70;;
46036;SDS011;31769;49.304;8.428;2022-07-10T13:46:50;4.10;;;0.30;;
46036;SDS011;31769;49.304;8.428;2022-07-10T13:49:51;1.63;;;0.22;;
46036;SDS011;31769;49.304;8.428;2022-07-10T13:52:52;1.67;;;0.40;;
46036;SDS011;31769;49.304;8.428;2022-07-10T13:55:53;2.60;;;0.45;;
46036;SDS011;31769;49.304;8.428;2022-07-10T13:58:53;1.33;;;0.40;;
46036;SDS011;31769;49.304;8.428;2022-07-10T14:01:54;5.03;;;0.70;;
46036;SDS011;31769;49.304;8.428;2022-07-10T14:04:55;2.10;;;0.40;;
46036;SDS011;31769;49.304;8.428;2022-07-10T14:07:55;2.28;;;0.57;;
46036;SDS011;31769;49.304;8.428;2022-07-10T14:10:56;4.07;;;0.57;;
46036;SDS011;31769;49.304;8.428;2022-07-10T14:13:57;4.00;;;0.50;;
46036;SDS011;31769;49.304;8.428;2022-07-10T14:16:58;2.70;;;0.55;;
46036;SDS011;31769;49.304;8.428;2022-07-10T14:19:59;2.28;;;0.40;;
46036;SDS011;31769;49.304;8.428;2022-07-10T14:22:59;3.67;;;0.68;;
46036;SDS011;31769;49.304;8.428;2022-07-10T14:26:00;7.38;;;0.60;;
46036;SDS011;31769;49.304;8.428;2022-07-10T14:29:02;1.95;;;0.40;;
46036;SDS011;31769;49.304;8.428;2022-07-10T14:32:03;1.67;;;0.40;;
46036;SDS011;31769;49.304;8.428;2022-07-10T14:35:04;3.40;;;0.60;;
46036;SDS011;31769;49.304;8.428;2022-07-10T14:38:06;5.88;;;0.98;;
46036;SDS011;31769;49.304;8.428;2022-07-10T14:41:06;4.43;;;0.60;;
46036;SDS011;31769;49.304;8.428;2022-07-10T14:44:07;6.40;;;0.50;;
46036;SDS011;31769;49.304;8.428;2022-07-10T14:47:08;3.70;;;0.52;;
46036;SDS011;31769;49.304;8.428;2022-07-10T14:50:09;5.22;;;0.40;;
46036;SDS011;31769;49.304;8.428;2022-07-10T14:53:09;2.20;;;0.50;;
46036;SDS011;31769;49.304;8.428;2022-07-10T14:56:11;2.60;;;0.50;;
46036;SDS011;31769;49.304;8.428;2022-07-10T14:59:12;4.75;;;0.52;;
46036;SDS011;31769;49.304;8.428;2022-07-10T15:02:13;3.10;;;0.47;;
46036;SDS011;31769;49.304;8.428;2022-07-10T15:05:13;3.83;;;0.60;;
46036;SDS011;31769;49.304;8.428;2022-07-10T15:08:14;2.25;;;0.30;;
46036;SDS011;31769;49.304;8.428;2022-07-10T15:11:15;4.53;;;0.30;;
46036;SDS011;31769;49.304;8.428;2022-07-10T15:14:16;2.53;;;0.35;;
46036;SDS011;31769;49.304;8.428;2022-07-10T15:17:17;1.02;;;0.30;;
46036;SDS011;31769;49.304;8.428;2022-07-10T15:20:17;4.00;;;0.50;;
46036;SDS011;31769;49.304;8.428;2022-07-10T15:23:19;2.25;;;0.20;;
46036;SDS011;31769;49.304;8.428;2022-07-10T15:26:20;2.65;;;0.15;;
46036;SDS011;31769;49.304;8.428;2022-07-10T15:29:20;2.92;;;0.32;;
46036;SDS011;31769;49.304;8.428;2022-07-10T15:32:24;1.55;;;0.20;;
46036;SDS011;31769;49.304;8.428;2022-07-10T15:35:24;1.25;;;0.20;;
46036;SDS011;31769;49.304;8.428;2022-07-10T15:38:25;0.30;;;0.13;;
46036;SDS011;31769;49.304;8.428;2022-07-10T15:41:26;1.25;;;0.30;;
46036;SDS011;31769;49.304;8.428;2022-07-10T15:44:27;3.42;;;0.15;;
46036;SDS011;31769;49.304;8.428;2022-07-10T15:47:28;4.70;;;0.32;;
46036;SDS011;31769;49.304;8.428;2022-07-10T15:50:29;1.27;;;0.20;;
46036;SDS011;31769;49.304;8.428;2022-07-10T15:53:29;0.50;;;0.20;;
46036;SDS011;31769;49.304;8.428;2022-07-10T15:56:30;0.90;;;0.10;;
46036;SDS011;31769;49.304;8.428;2022-07-10T15:59:31;3.28;;;0.25;;
46036;SDS011;31769;49.304;8.428;2022-07-10T16:02:31;1.10;;;0.00;;
46036;SDS011;31769;49.304;8.428;2022-07-10T16:05:32;1.50;;;0.10;;
46036;SDS011;31769;49.304;8.428;2022-07-10T16:08:33;1.02;;;0.10;;
46036;SDS011;31769;49.304;8.428;2022-07-10T16:11:33;2.30;;;0.13;;
46036;SDS011;31769;49.304;8.428;2022-07-10T16:14:34;1.30;;;0.20;;
46036;SDS011;31769;49.304;8.428;2022-07-10T16:17:35;0.50;;;0.10;;
46036;SDS011;31769;49.304;8.428;2022-07-10T16:20:36;1.17;;;0.20;;
46036;SDS011;31769;49.304;8.428;2022-07-10T16:23:38;3.35;;;0.20;;
46036;SDS011;31769;49.304;8.428;2022-07-10T16:26:38;0.65;;;0.10;;
46036;SDS011;31769;49.304;8.428;2022-07-10T16:29:39;0.95;;;0.20;;
46036;SDS011;31769;49.304;8.428;2022-07-10T16:32:40;1.73;;;0.30;;
46036;SDS011;31769;49.304;8.428;2022-07-10T16:35:41;0.75;;;0.10;;
46036;SDS011;31769;49.304;8.428;2022-07-10T16:38:41;3.15;;;0.30;;
46036;SDS011;31769;49.304;8.428;2022-07-10T16:41:43;2.60;;;0.35;;
46036;SDS011;31769;49.304;8.428;2022-07-10T16:44:43;1.73;;;0.25;;
46036;SDS011;31769;49.304;8.428;2022-07-10T16:47:44;4.72;;;0.40;;
46036;SDS011;31769;49.304;8.428;2022-07-10T16:50:44;1.75;;;0.20;;
46036;SDS011;31769;49.304;8.428;2022-07-10T16:53:45;5.57;;;0.52;;
46036;SDS011;31769;49.304;8.428;2022-07-10T16:56:46;1.98;;;0.40;;
46036;SDS011;31769;49.304;8.428;2022-07-10T16:59:47;0.60;;;0.25;;
46036;SDS011;31769;49.304;8.428;2022-07-10T17:02:47;2.00;;;0.30;;
46036;SDS011;31769;49.304;8.428;2022-07-10T17:05:48;1.27;;;0.10;;
46036;SDS011;31769;49.304;8.428;2022-07-10T17:08:49;1.98;;;0.38;;
46036;SDS011;31769;49.304;8.428;2022-07-10T17:11:49;1.67;;;0.20;;
46036;SDS011;31769;49.304;8.428;2022-07-10T17:14:50;1.80;;;0.30;;
46036;SDS011;31769;49.304;8.428;2022-07-10T17:17:51;1.05;;;0.40;;
46036;SDS011;31769;49.304;8.428;2022-07-10T17:20:51;3.40;;;1.38;;
46036;SDS011;31769;49.304;8.428;2022-07-10T17:23:52;4.20;;;1.65;;
46036;SDS011;31769;49.304;8.428;2022-07-10T17:26:53;10.95;;;6.25;;
46036;SDS011;31769;49.304;8.428;2022-07-10T17:29:54;4.30;;;1.27;;
46036;SDS011;31769;49.304;8.428;2022-07-10T17:32:57;1.02;;;0.50;;
46036;SDS011;31769;49.304;8.428;2022-07-10T17:36:01;3.08;;;1.15;;
46036;SDS011;31769;49.304;8.428;2022-07-10T17:39:02;1.17;;;0.30;;
46036;SDS011;31769;49.304;8.428;2022-07-10T17:42:04;1.10;;;0.30;;
46036;SDS011;31769;49.304;8.428;2022-07-10T17:45:06;2.47;;;0.20;;
46036;SDS011;31769;49.304;8.428;2022-07-10T17:48:08;2.20;;;0.93;;
46036;SDS011;31769;49.304;8.428;2022-07-10T17:51:08;1.65;;;0.70;;
46036;SDS011;31769;49.304;8.428;2022-07-10T17:54:09;0.20;;;0.10;;
46036;SDS011;31769;49.304;8.428;2022-07-10T17:57:10;3.40;;;1.83;;
46036;SDS011;31769;49.304;8.428;2022-07-10T18:00:11;5.30;;;4.45;;
46036;SDS011;31769;49.304;8.428;2022-07-10T18:03:12;6.35;;;5.75;;
46036;SDS011;31769;49.304;8.428;2022-07-10T18:06:13;13.70;;;10.63;;
46036;SDS011;31769;49.304;8.428;2022-07-10T18:09:13;1.42;;;1.25;;
46036;SDS011;31769;49.304;8.428;2022-07-10T18:12:14;5.93;;;2.22;;
46036;SDS011;31769;49.304;8.428;2022-07-10T18:15:15;0.30;;;0.28;;
46036;SDS011;31769;49.304;8.428;2022-07-10T18:18:16;2.70;;;0.40;;
46036;SDS011;31769;49.304;8.428;2022-07-10T18:21:17;0.60;;;0.52;;
46036;SDS011;31769;49.304;8.428;2022-07-10T18:24:18;6.32;;;1.00;;
46036;SDS011;31769;49.304;8.428;2022-07-10T18:27:19;1.58;;;1.40;;
46036;SDS011;31769;49.304;8.428;2022-07-10T18:30:21;3.70;;;1.70;;
46036;SDS011;31769;49.304;8.428;2022-07-10T18:33:22;3.10;;;1.40;;
46036;SDS011;31769;49.304;8.428;2022-07-10T18:36:42;1.60;;;1.05;;
46036;SDS011;31769;49.304;8.428;2022-07-10T18:39:43;0.98;;;0.80;;
46036;SDS011;31769;49.304;8.428;2022-07-10T18:42:43;2.78;;;1.08;;
46036;SDS011;31769;49.304;8.428;2022-07-10T18:45:44;6.97;;;4.53;;
46036;SDS011;31769;49.304;8.428;2022-07-10T18:48:45;2.97;;;1.50;;
46036;SDS011;31769;49.304;8.428;2022-07-10T18:51:46;3.08;;;1.60;;
46036;SDS011;31769;49.304;8.428;2022-07-10T18:54:46;2.53;;;2.33;;
46036;SDS011;31769;49.304;8.428;2022-07-10T18:57:47;3.28;;;1.80;;
46036;SDS011;31769;49.304;8.428;2022-07-10T19:00:48;2.60;;;1.70;;
46036;SDS011;31769;49.304;8.428;2022-07-10T19:03:49;2.63;;;2.42;;
46036;SDS011;31769;49.304;8.428;2022-07-10T19:06:50;4.90;;;2.10;;
46036;SDS011;31769;49.304;8.428;2022-07-10T19:09:51;2.45;;;2.33;;
46036;SDS011;31769;49.304;8.428;2022-07-10T19:12:53;1.95;;;1.73;;
46036;SDS011;31769;49.304;8.428;2022-07-10T19:15:54;2.40;;;2.13;;
46036;SDS011;31769;49.304;8.428;2022-07-10T19:18:55;2.72;;;2.30;;
46036;SDS011;31769;49.304;8.428;2022-07-10T19:21:57;4.43;;;1.67;;
46036;SDS011;31769;49.304;8.428;2022-07-10T19:24:59;2.50;;;1.60;;
46036;SDS011;31769;49.304;8.428;2022-07-10T19:28:00;1.50;;;1.40;;
46036;SDS011;31769;49.304;8.428;2022-07-10T19:31:03;6.05;;;1.75;;
46036;SDS011;31769;49.304;8.428;2022-07-10T19:34:04;1.60;;;1.50;;
46036;SDS011;31769;49.304;8.428;2022-07-10T19:37:05;5.75;;;1.70;;
46036;SDS011;31769;49.304;8.428;2022-07-10T19:40:06;6.88;;;5.10;;
46036;SDS011;31769;49.304;8.428;2022-07-10T19:43:08;1.95;;;1.77;;
46036;SDS011;31769;49.304;8.428;2022-07-10T19:46:08;1.65;;;1.55;;
46036;SDS011;31769;49.304;8.428;2022-07-10T19:49:09;1.80;;;1.60;;
46036;SDS011;31769;49.304;8.428;2022-07-10T19:52:10;1.50;;;1.40;;
46036;SDS011;31769;49.304;8.428;2022-07-10T19:55:11;1.50;;;1.40;;
46036;SDS011;31769;49.304;8.428;2022-07-10T19:58:11;1.85;;;1.48;;
46036;SDS011;31769;49.304;8.428;2022-07-10T20:01:12;1.63;;;1.42;;
46036;SDS011;31769;49.304;8.428;2022-07-10T20:04:13;1.50;;;1.40;;
46036;SDS011;31769;49.304;8.428;2022-07-10T20:07:14;1.70;;;1.60;;
46036;SDS011;31769;49.304;8.428;2022-07-10T20:10:15;2.45;;;1.40;;
46036;SDS011;31769;49.304;8.428;2022-07-10T20:13:16;2.53;;;1.63;;
46036;SDS011;31769;49.304;8.428;2022-07-10T20:16:17;1.67;;;1.13;;
46036;SDS011;31769;49.304;8.428;2022-07-10T20:19:18;1.95;;;1.23;;
46036;SDS011;31769;49.304;8.428;2022-07-10T20:22:20;2.47;;;1.40;;
46036;SDS011;31769;49.304;8.428;2022-07-10T20:25:20;1.65;;;1.30;;
46036;SDS011;31769;49.304;8.428;2022-07-10T20:28:22;1.38;;;1.27;;
46036;SDS011;31769;49.304;8.428;2022-07-10T20:31:23;2.35;;;1.35;;
46036;SDS011;31769;49.304;8.428;2022-07-10T20:34:23;1.95;;;1.30;;
46036;SDS011;31769;49.304;8.428;2022-07-10T20:37:24;2.03;;;1.42;;
46036;SDS011;31769;49.304;8.428;2022-07-10T20:40:40;2.03;;;1.80;;